Terminal Aerodrome Forecast
Issued by NWS

Home | Current Version | Previous Version | Text Only | Print | Product List | Glossary Off
Versions: 1 2 3 4 5 6 7 8 9 10 11 12 13 14 15 16 17 18 19 20

000
FTUS43 KBIS 262300
TAFMOT
TAF
KMOT 262339Z 2700/2724 29022G32KT P6SM VCSH BKN050
     FM270200 31012KT P6SM BKN040
     FM271700 33011KT P6SM SCT050
     FM272100 35009KT P6SM SCT230=

USA.gov is the U.S. government's official web portal to all federal, state and local government web resources and services.